createdAt,value
2019-05-22T00:00:51.181Z,4.80
2019-05-22T00:03:13.939Z,5.20
2019-05-22T00:05:24.522Z,4.58
2019-05-22T00:07:32.667Z,4.85
2019-05-22T00:09:42.360Z,3.58
2019-05-22T00:11:52.496Z,4.97
2019-05-22T00:14:00.438Z,4.00
2019-05-22T00:16:11.602Z,3.65
2019-05-22T00:18:19.766Z,4.78
2019-05-22T00:20:29.686Z,4.30
2019-05-22T00:22:39.317Z,4.53
2019-05-22T00:24:50.340Z,3.05
2019-05-22T00:27:00.371Z,3.70
2019-05-22T00:29:09.193Z,4.83
2019-05-22T00:31:18.261Z,3.87
2019-05-22T00:33:26.521Z,4.10
2019-05-22T00:35:36.981Z,4.53
2019-05-22T00:37:46.191Z,3.25
2019-05-22T00:39:54.975Z,4.35
2019-05-22T00:42:03.890Z,4.05
2019-05-22T00:44:14.222Z,4.47
2019-05-22T00:46:24.023Z,3.90
2019-05-22T00:48:34.559Z,4.90
2019-05-22T00:50:53.737Z,4.90
2019-05-22T00:53:04.011Z,5.15
2019-05-22T00:55:14.269Z,4.97
2019-05-22T00:57:23.806Z,4.83
2019-05-22T00:59:36.211Z,4.97
2019-05-22T01:01:46.377Z,5.95
2019-05-22T01:03:56.808Z,4.70
2019-05-22T01:06:06.285Z,5.70
2019-05-22T01:08:18.065Z,4.42
2019-05-22T01:10:27.037Z,5.55
2019-05-22T01:12:42.917Z,5.72
2019-05-22T01:14:52.894Z,5.55
2019-05-22T01:17:03.743Z,5.22
2019-05-22T01:19:11.930Z,4.90
2019-05-22T01:21:22.261Z,6.08
2019-05-22T01:23:31.872Z,4.65
2019-05-22T01:25:40.738Z,4.62
2019-05-22T01:27:51.423Z,5.35
2019-05-22T01:30:03.530Z,5.83
2019-05-22T01:32:18.821Z,3.45
2019-05-22T01:34:28.675Z,4.92
2019-05-22T01:36:38.471Z,4.55
2019-05-22T01:38:47.850Z,5.08
2019-05-22T01:40:57.648Z,5.72
2019-05-22T01:43:09.913Z,6.30
2019-05-22T01:45:18.659Z,4.67
2019-05-22T01:47:44.082Z,4.03
2019-05-22T01:49:56.433Z,4.75
2019-05-22T01:52:06.687Z,4.20
2019-05-22T01:54:15.109Z,4.87
2019-05-22T01:56:24.871Z,4.12
2019-05-22T01:58:34.518Z,4.83
2019-05-22T02:00:44.190Z,6.03
2019-05-22T02:02:52.539Z,5.30
2019-05-22T02:05:02.025Z,5.15
2019-05-22T02:07:11.533Z,4.97
2019-05-22T02:09:37.570Z,5.40
2019-05-22T02:11:46.521Z,4.70
2019-05-22T02:14:16.073Z,2.80
2019-05-22T02:16:24.400Z,4.17
2019-05-22T02:18:34.790Z,4.85
2019-05-22T02:20:44.973Z,4.65
2019-05-22T02:22:54.699Z,5.10
2019-05-22T02:25:05.349Z,4.30
2019-05-22T02:27:13.901Z,4.17
2019-05-22T02:29:22.324Z,4.87
2019-05-22T02:31:30.541Z,5.00
2019-05-22T02:33:56.584Z,4.92
2019-05-22T02:36:05.976Z,4.15
2019-05-22T02:38:14.025Z,5.45
2019-05-22T02:40:32.355Z,5.60
2019-05-22T02:42:40.712Z,5.78
2019-05-22T02:44:48.856Z,5.87
2019-05-22T02:47:16.745Z,5.10
2019-05-22T02:49:13.539Z,6.17
2019-05-22T02:51:22.302Z,4.72
2019-05-22T02:53:33.735Z,5.95
2019-05-22T02:55:41.801Z,7.53
2019-05-22T02:57:51.977Z,5.62
2019-05-22T03:00:00.942Z,6.40
2019-05-22T03:02:09.930Z,6.00
2019-05-22T03:04:19.036Z,7.53
2019-05-22T03:06:28.023Z,8.53
2019-05-22T03:09:03.966Z,8.10
2019-05-22T03:11:13.292Z,8.90
2019-05-22T03:13:26.756Z,9.33
2019-05-22T03:15:35.309Z,9.35
2019-05-22T03:17:47.351Z,9.85
2019-05-22T03:19:55.564Z,10.78
2019-05-22T03:22:29.158Z,10.20
2019-05-22T03:24:38.049Z,11.20
2019-05-22T03:26:49.023Z,10.40
2019-05-22T03:28:57.126Z,11.60
2019-05-22T03:31:06.953Z,11.05
2019-05-22T03:33:16.586Z,11.70
2019-05-22T03:35:28.293Z,12.47
2019-05-22T03:37:37.022Z,12.30
2019-05-22T03:39:46.875Z,11.73
2019-05-22T03:41:55.400Z,12.82
2019-05-22T03:44:05.093Z,12.33
2019-05-22T03:46:37.124Z,12.75
2019-05-22T03:48:45.129Z,11.15
2019-05-22T03:50:58.215Z,10.98
2019-05-22T03:53:18.320Z,12.13
2019-05-22T03:55:27.558Z,12.35
2019-05-22T03:57:38.213Z,11.95
2019-05-22T03:59:46.678Z,11.75
2019-05-22T04:01:56.702Z,12.53
2019-05-22T04:04:07.607Z,11.05
2019-05-22T04:06:17.573Z,15.25
2019-05-22T04:08:27.835Z,13.98
2019-05-22T04:10:41.577Z,15.95
2019-05-22T04:12:50.609Z,16.17
2019-05-22T04:15:00.558Z,16.70
2019-05-22T04:17:13.696Z,19.82
2019-05-22T04:19:23.177Z,18.45
2019-05-22T04:21:31.799Z,17.37
2019-05-22T04:23:40.301Z,19.90
2019-05-22T04:25:52.732Z,20.65
2019-05-22T04:27:59.495Z,22.02
2019-05-22T04:30:12.008Z,21.30
2019-05-22T04:32:31.813Z,19.57
2019-05-22T04:34:40.660Z,18.27
2019-05-22T04:36:50.303Z,17.92
2019-05-22T04:39:00.834Z,20.50
2019-05-22T04:41:11.150Z,23.30
2019-05-22T04:43:21.681Z,24.23
2019-05-22T04:45:30.895Z,23.95
2019-05-22T04:47:40.493Z,26.23
2019-05-22T04:50:06.247Z,22.40
2019-05-22T04:52:00.371Z,25.30
2019-05-22T04:54:08.831Z,19.40
2019-05-22T04:56:17.818Z,25.65
2019-05-22T04:58:28.151Z,25.02
2019-05-22T05:00:37.645Z,27.48
2019-05-22T05:02:46.106Z,26.37
2019-05-22T05:04:54.327Z,27.15
2019-05-22T05:07:04.705Z,28.20
2019-05-22T05:09:14.552Z,27.62
2019-05-22T05:11:25.418Z,37.70
2019-05-22T05:13:34.365Z,29.87
2019-05-22T05:15:42.920Z,21.68
2019-05-22T05:17:52.069Z,28.42
2019-05-22T05:20:00.141Z,23.05
2019-05-22T05:22:08.303Z,24.63
2019-05-22T05:24:16.945Z,23.15
2019-05-22T05:26:27.033Z,24.55
2019-05-22T05:28:35.537Z,25.37
2019-05-22T05:30:45.665Z,23.95
2019-05-22T05:32:54.694Z,23.87
2019-05-22T05:35:05.743Z,22.20
2019-05-22T05:37:16.073Z,20.72
2019-05-22T05:39:42.327Z,22.50
2019-05-22T05:41:50.437Z,25.43
2019-05-22T05:43:59.768Z,24.35
2019-05-22T05:46:10.476Z,31.48
2019-05-22T05:48:22.062Z,20.97
2019-05-22T05:50:39.674Z,20.23
2019-05-22T05:52:42.142Z,20.30
2019-05-22T05:54:51.567Z,17.20
2019-05-22T05:57:37.627Z,14.65
2019-05-22T05:59:46.080Z,14.58
2019-05-22T06:01:55.688Z,14.87
2019-05-22T06:04:06.385Z,15.28
2019-05-22T06:06:30.731Z,15.98
2019-05-22T06:08:39.981Z,14.58
2019-05-22T06:11:09.195Z,15.38
2019-05-22T06:13:17.807Z,12.88
2019-05-22T06:15:47.582Z,12.73
2019-05-22T06:18:34.880Z,12.03
2019-05-22T06:21:04.503Z,13.53
2019-05-22T06:23:34.100Z,11.38
2019-05-22T06:25:42.101Z,12.50
2019-05-22T06:27:53.011Z,11.88
2019-05-22T06:30:11.369Z,11.68
2019-05-22T06:32:51.418Z,11.50
2019-05-22T06:34:59.855Z,12.25
2019-05-22T06:37:21.691Z,10.75
2019-05-22T06:39:30.513Z,10.00
2019-05-22T06:41:41.474Z,9.33
2019-05-22T06:44:29.120Z,9.90
2019-05-22T06:46:48.237Z,8.00
2019-05-22T06:48:59.718Z,8.63
2019-05-22T06:51:18.967Z,9.20
2019-05-22T06:53:38.434Z,9.65
2019-05-22T06:55:46.464Z,12.15
2019-05-22T06:57:55.602Z,17.87
2019-05-22T07:00:14.005Z,15.10
2019-05-22T07:02:19.637Z,8.53
2019-05-22T07:04:28.266Z,12.45
2019-05-22T07:06:36.379Z,11.45
2019-05-22T07:08:44.532Z,11.08
2019-05-22T07:10:52.607Z,14.75
2019-05-22T07:13:00.899Z,17.85
2019-05-22T07:15:20.775Z,24.95
2019-05-22T07:17:30.310Z,13.55
2019-05-22T07:19:39.398Z,10.53
2019-05-22T07:21:51.942Z,15.58
2019-05-22T07:24:01.213Z,12.07
2019-05-22T07:26:10.562Z,11.57
2019-05-22T07:28:20.396Z,12.50
2019-05-22T07:30:28.995Z,11.50
2019-05-22T07:32:38.160Z,13.08
2019-05-22T07:34:47.301Z,12.98
2019-05-22T07:36:56.340Z,12.65
2019-05-22T07:39:06.812Z,11.43
2019-05-22T07:41:15.232Z,22.73
2019-05-22T07:43:24.089Z,29.72
2019-05-22T07:45:32.531Z,18.77
2019-05-22T07:47:42.726Z,21.57
2019-05-22T07:49:50.762Z,18.15
2019-05-22T07:52:01.765Z,20.05
2019-05-22T07:54:08.683Z,17.48
2019-05-22T07:56:17.691Z,26.12
2019-05-22T07:58:28.932Z,24.20
2019-05-22T08:00:37.970Z,21.80
2019-05-22T08:02:49.203Z,23.30
2019-05-22T08:04:57.120Z,21.33
2019-05-22T08:07:08.439Z,20.70
2019-05-22T08:09:18.481Z,21.25
2019-05-22T08:11:27.510Z,20.95
2019-05-22T08:13:36.166Z,18.10
2019-05-22T08:15:47.644Z,20.08
2019-05-22T08:17:55.183Z,22.00
2019-05-22T08:20:08.775Z,19.52
2019-05-22T08:22:18.643Z,21.37
2019-05-22T08:24:27.118Z,22.10
2019-05-22T08:26:53.257Z,18.92
2019-05-22T08:28:46.332Z,21.95
2019-05-22T08:30:55.855Z,24.07
2019-05-22T08:33:09.842Z,21.42
2019-05-22T08:35:18.368Z,15.15
2019-05-22T08:37:33.548Z,25.17
2019-05-22T08:39:41.769Z,18.45
2019-05-22T08:41:51.214Z,19.20
2019-05-22T08:44:15.522Z,17.60
2019-05-22T08:46:09.623Z,22.48
2019-05-22T08:48:21.806Z,18.23
2019-05-22T08:50:31.318Z,16.52
2019-05-22T08:52:40.948Z,15.30
2019-05-22T08:54:48.916Z,18.23
2019-05-22T08:56:58.349Z,13.35
2019-05-22T08:59:18.947Z,13.40
2019-05-22T09:01:30.669Z,16.35
2019-05-22T09:03:39.442Z,13.68
2019-05-22T09:05:48.392Z,11.40
2019-05-22T09:07:56.521Z,10.82
2019-05-22T09:10:06.560Z,11.08
2019-05-22T09:12:14.521Z,9.98
2019-05-22T09:14:22.877Z,10.50
2019-05-22T09:16:32.705Z,13.38
2019-05-22T09:18:41.092Z,10.53
2019-05-22T09:20:50.083Z,10.20
2019-05-22T09:22:59.894Z,12.33
2019-05-22T09:25:11.866Z,12.75
2019-05-22T09:27:21.236Z,10.38
2019-05-22T09:29:29.186Z,9.85
2019-05-22T09:31:37.422Z,8.73
2019-05-22T09:33:45.471Z,8.43
2019-05-22T09:35:53.558Z,6.20
2019-05-22T09:38:01.606Z,6.78
2019-05-22T09:40:10.043Z,8.38
2019-05-22T09:42:19.836Z,8.53
2019-05-22T09:44:29.031Z,8.30
2019-05-22T09:46:37.251Z,8.48
2019-05-22T09:48:45.340Z,9.48
2019-05-22T09:50:53.603Z,9.95
2019-05-22T09:53:01.494Z,9.80
2019-05-22T09:55:11.221Z,10.75
2019-05-22T09:57:19.756Z,10.45
2019-05-22T09:59:28.929Z,8.78
2019-05-22T10:01:37.303Z,9.43
2019-05-22T10:03:46.360Z,15.65
2019-05-22T10:05:54.440Z,9.90
2019-05-22T10:08:03.971Z,10.45
2019-05-22T10:10:13.160Z,9.15
2019-05-22T10:12:21.414Z,9.30
2019-05-22T10:14:29.736Z,8.18
2019-05-22T10:16:38.837Z,8.18
2019-05-22T10:18:47.381Z,8.00
2019-05-22T10:20:56.086Z,8.08
2019-05-22T10:23:15.566Z,8.78
2019-05-22T10:25:21.164Z,6.85
2019-05-22T10:27:29.528Z,8.38
2019-05-22T10:29:37.845Z,8.18
2019-05-22T10:31:48.482Z,8.98
2019-05-22T10:33:56.465Z,8.00
2019-05-22T10:36:05.149Z,8.78
2019-05-22T10:38:14.082Z,8.55
2019-05-22T10:40:22.985Z,7.08
2019-05-22T10:42:31.545Z,7.78
2019-05-22T10:44:39.586Z,7.53
2019-05-22T10:46:48.027Z,6.95
2019-05-22T10:48:56.345Z,7.50
2019-05-22T10:51:04.861Z,7.60
2019-05-22T10:53:13.401Z,8.43
2019-05-22T10:55:22.785Z,8.15
2019-05-22T10:57:31.885Z,7.35
2019-05-22T10:59:40.854Z,7.75
2019-05-22T11:01:48.999Z,8.75
2019-05-22T11:03:57.955Z,7.72
2019-05-22T11:06:07.898Z,7.92
2019-05-22T11:08:16.671Z,8.08
2019-05-22T11:10:26.465Z,7.28
2019-05-22T11:12:35.195Z,7.00
2019-05-22T11:14:43.981Z,15.00
2019-05-22T11:16:52.460Z,8.95
2019-05-22T11:19:00.773Z,9.30
2019-05-22T11:21:08.731Z,8.50
2019-05-22T11:23:16.905Z,9.00
2019-05-22T11:25:25.458Z,10.05
2019-05-22T11:27:33.695Z,8.90
2019-05-22T11:29:42.844Z,9.58
2019-05-22T11:31:51.722Z,8.38
2019-05-22T11:34:00.358Z,9.15
2019-05-22T11:36:09.766Z,8.58
2019-05-22T11:38:18.417Z,7.20
2019-05-22T11:40:27.106Z,7.75
2019-05-22T11:42:36.278Z,5.47
2019-05-22T11:44:45.321Z,7.00
2019-05-22T11:46:53.447Z,6.90
2019-05-22T11:49:03.664Z,6.75
2019-05-22T11:51:12.259Z,7.30
2019-05-22T11:53:20.414Z,7.17
2019-05-22T11:55:43.919Z,7.28
2019-05-22T11:57:40.410Z,7.85
2019-05-22T11:59:49.387Z,7.55
2019-05-22T12:01:57.971Z,5.87
2019-05-22T12:04:09.253Z,5.50
2019-05-22T12:06:17.395Z,5.70
2019-05-22T12:08:26.912Z,4.35
2019-05-22T12:10:35.063Z,3.72
2019-05-22T12:12:44.673Z,4.53
2019-05-22T12:14:52.609Z,3.80
2019-05-22T12:17:01.259Z,5.22
2019-05-22T12:19:10.514Z,4.90
2019-05-22T12:21:18.727Z,5.45
2019-05-22T12:23:27.292Z,4.92
2019-05-22T12:25:35.703Z,5.37
2019-05-22T12:27:43.998Z,5.47
2019-05-22T12:29:52.540Z,5.87
2019-05-22T12:32:01.497Z,6.10
2019-05-22T12:34:09.688Z,5.90
2019-05-22T12:36:18.267Z,6.80
2019-05-22T12:38:27.288Z,7.28
2019-05-22T12:40:36.491Z,6.85
2019-05-22T12:42:45.726Z,6.85
2019-05-22T12:44:54.206Z,7.05
2019-05-22T12:47:03.717Z,6.17
2019-05-22T12:49:12.336Z,6.20
2019-05-22T12:51:21.666Z,6.83
2019-05-22T12:53:31.337Z,6.45
2019-05-22T12:55:41.748Z,5.30
2019-05-22T12:57:50.883Z,6.47
2019-05-22T13:00:02.572Z,7.03
2019-05-22T13:02:10.984Z,6.28
2019-05-22T13:04:21.525Z,6.35
2019-05-22T13:06:30.007Z,8.73
2019-05-22T13:08:39.153Z,10.15
2019-05-22T13:10:47.698Z,8.55
2019-05-22T13:12:56.984Z,9.28
2019-05-22T13:15:10.412Z,9.58
2019-05-22T13:17:19.701Z,9.80
2019-05-22T13:19:28.710Z,11.20
2019-05-22T13:21:39.595Z,9.25
2019-05-22T13:23:49.683Z,9.30
2019-05-22T13:25:58.380Z,8.83
2019-05-22T13:28:07.796Z,8.70
2019-05-22T13:30:18.369Z,9.23
2019-05-22T13:32:27.765Z,8.23
2019-05-22T13:34:35.768Z,7.53
2019-05-22T13:36:44.085Z,8.28
2019-05-22T13:38:53.042Z,9.10
2019-05-22T13:41:01.270Z,8.10
2019-05-22T13:43:09.421Z,10.90
2019-05-22T13:45:28.717Z,13.22
2019-05-22T13:47:28.416Z,12.98
2019-05-22T13:49:38.892Z,11.38
2019-05-22T13:51:47.257Z,9.25
2019-05-22T13:53:55.595Z,8.83
2019-05-22T13:56:04.660Z,9.08
2019-05-22T13:58:13.347Z,8.68
2019-05-22T14:00:23.485Z,10.23
2019-05-22T14:02:31.983Z,9.28
2019-05-22T14:04:40.755Z,8.73
2019-05-22T14:06:49.507Z,8.48
2019-05-22T14:08:57.934Z,9.00
2019-05-22T14:11:09.006Z,9.25
2019-05-22T14:13:17.789Z,9.05
2019-05-22T14:15:26.919Z,10.28
2019-05-22T14:17:35.146Z,9.98
2019-05-22T14:19:43.303Z,10.08
2019-05-22T14:21:52.213Z,12.75
2019-05-22T14:24:00.846Z,11.28
2019-05-22T14:26:09.770Z,10.23
2019-05-22T14:28:19.380Z,11.30
2019-05-22T14:30:28.103Z,12.03
2019-05-22T14:32:36.960Z,12.85
2019-05-22T14:34:46.001Z,16.50
2019-05-22T14:36:54.529Z,18.15
2019-05-22T14:39:05.018Z,17.52
2019-05-22T14:41:13.971Z,20.88
2019-05-22T14:43:22.197Z,23.55
2019-05-22T14:45:30.630Z,22.82
2019-05-22T14:47:39.122Z,24.02
2019-05-22T14:49:47.170Z,26.07
2019-05-22T14:51:56.206Z,24.95
2019-05-22T14:54:08.177Z,29.48
2019-05-22T14:56:17.778Z,26.20
2019-05-22T14:58:26.571Z,20.75
2019-05-22T15:00:36.533Z,26.93
2019-05-22T15:02:44.641Z,241.40
2019-05-22T15:05:00.825Z,150.85
2019-05-22T15:07:04.347Z,91.67
2019-05-22T15:09:12.891Z,60.33
2019-05-22T15:11:21.531Z,35.48
2019-05-22T15:13:29.690Z,43.45
2019-05-22T15:15:40.403Z,30.60
2019-05-22T15:17:47.689Z,29.25
2019-05-22T15:19:55.747Z,17.00
2019-05-22T15:22:05.461Z,39.00
2019-05-22T15:24:15.880Z,12.45
2019-05-22T15:26:23.980Z,21.85
2019-05-22T15:28:32.210Z,10.93
2019-05-22T15:30:40.877Z,8.45
2019-05-22T15:32:49.136Z,11.35
2019-05-22T15:34:58.211Z,10.00
2019-05-22T15:37:07.566Z,11.88
2019-05-22T15:39:20.206Z,11.65
2019-05-22T15:41:28.924Z,15.70
2019-05-22T15:43:38.072Z,11.97
2019-05-22T15:45:46.230Z,11.90
2019-05-22T15:47:57.996Z,9.23
2019-05-22T15:50:09.631Z,8.23
2019-05-22T15:52:18.907Z,10.63
2019-05-22T15:54:29.541Z,17.32
2019-05-22T15:56:39.280Z,11.08
2019-05-22T15:58:52.373Z,13.72
2019-05-22T16:01:02.230Z,11.12
2019-05-22T16:03:15.210Z,7.30
2019-05-22T16:05:24.939Z,10.68
2019-05-22T16:07:34.018Z,10.45
2019-05-22T16:09:47.646Z,12.78
2019-05-22T16:11:56.549Z,8.23
2019-05-22T16:14:05.291Z,7.87
2019-05-22T16:16:16.773Z,7.92
2019-05-22T16:18:31.359Z,10.30
2019-05-22T16:20:40.233Z,12.25
2019-05-22T16:22:48.635Z,9.43
2019-05-22T16:24:56.816Z,7.87
2019-05-22T16:27:06.771Z,9.00
2019-05-22T16:29:15.681Z,12.95
2019-05-22T16:31:24.388Z,9.45
2019-05-22T16:33:32.939Z,9.38
2019-05-22T16:35:41.834Z,7.50
2019-05-22T16:37:50.026Z,7.72
2019-05-22T16:39:58.581Z,8.53
2019-05-22T16:42:08.177Z,11.60
2019-05-22T16:44:16.817Z,9.90
2019-05-22T16:46:26.303Z,8.38
2019-05-22T16:48:34.817Z,6.60
2019-05-22T16:50:43.350Z,7.67
2019-05-22T16:52:52.847Z,8.00
2019-05-22T16:55:01.930Z,9.20
2019-05-22T16:57:12.044Z,7.70
2019-05-22T16:59:21.326Z,6.72
2019-05-22T17:01:30.951Z,6.33
2019-05-22T17:03:40.179Z,6.80
2019-05-22T17:05:48.491Z,8.08
2019-05-22T17:07:57.737Z,5.92
2019-05-22T17:10:10.128Z,5.55
2019-05-22T17:12:19.516Z,6.50
2019-05-22T17:14:29.037Z,5.80
2019-05-22T17:16:39.745Z,6.03
2019-05-22T17:18:48.923Z,5.78
2019-05-22T17:20:59.160Z,8.98
2019-05-22T17:23:07.182Z,6.20
2019-05-22T17:25:18.679Z,8.00
2019-05-22T17:27:27.001Z,7.97
2019-05-22T17:29:36.500Z,6.67
2019-05-22T17:31:45.363Z,6.12
2019-05-22T17:33:54.462Z,7.47
2019-05-22T17:36:05.550Z,7.75
2019-05-22T17:38:12.591Z,7.92
2019-05-22T17:40:22.290Z,8.10
2019-05-22T17:42:31.579Z,8.65
2019-05-22T17:44:43.275Z,9.00
2019-05-22T17:46:51.232Z,9.48
2019-05-22T17:49:00.664Z,14.13
2019-05-22T17:51:09.201Z,14.63
2019-05-22T17:53:18.863Z,18.37
2019-05-22T17:55:28.873Z,15.88
2019-05-22T17:57:39.146Z,14.55
2019-05-22T17:59:47.423Z,11.97
2019-05-22T18:01:55.871Z,11.75
2019-05-22T18:04:04.899Z,11.57
2019-05-22T18:06:13.995Z,11.25
2019-05-22T18:08:23.426Z,11.50
2019-05-22T18:10:40.483Z,11.12
2019-05-22T18:12:49.322Z,11.35
2019-05-22T18:14:57.556Z,12.10
2019-05-22T18:17:06.783Z,10.20
2019-05-22T18:19:15.122Z,11.50
2019-05-22T18:21:23.018Z,10.35
2019-05-22T18:23:31.366Z,11.08
2019-05-22T18:25:39.629Z,11.22
2019-05-22T18:27:48.941Z,10.50
2019-05-22T18:29:57.064Z,10.80
2019-05-22T18:32:06.800Z,11.22
2019-05-22T18:34:15.393Z,11.53
2019-05-22T18:36:23.706Z,11.70
2019-05-22T18:38:32.132Z,12.75
2019-05-22T18:40:41.074Z,12.60
2019-05-22T18:42:49.617Z,13.68
2019-05-22T18:44:57.818Z,15.08
2019-05-22T18:47:06.032Z,16.77
2019-05-22T18:49:14.783Z,14.50
2019-05-22T18:51:23.760Z,14.45
2019-05-22T18:53:32.184Z,13.90
2019-05-22T18:55:40.271Z,15.65
2019-05-22T18:57:48.912Z,18.95
2019-05-22T19:00:02.823Z,18.07
2019-05-22T19:02:09.442Z,16.15
2019-05-22T19:04:17.728Z,17.05
2019-05-22T19:06:30.539Z,18.15
2019-05-22T19:08:35.867Z,18.02
2019-05-22T19:10:44.279Z,17.87
2019-05-22T19:12:53.263Z,19.55
2019-05-22T19:15:01.938Z,18.87
2019-05-22T19:17:10.762Z,26.70
2019-05-22T19:19:18.872Z,25.48
2019-05-22T19:21:27.033Z,26.40
2019-05-22T19:23:35.259Z,25.92
2019-05-22T19:25:43.333Z,26.85
2019-05-22T19:27:51.465Z,35.28
2019-05-22T19:29:59.987Z,35.20
2019-05-22T19:32:08.127Z,31.37
2019-05-22T19:34:16.187Z,29.45
2019-05-22T19:36:24.141Z,35.92
2019-05-22T19:38:32.377Z,35.05
2019-05-22T19:40:40.511Z,37.58
2019-05-22T19:42:48.870Z,42.55
2019-05-22T19:44:57.180Z,38.42
2019-05-22T19:47:07.091Z,36.10
2019-05-22T19:49:16.417Z,33.80
2019-05-22T19:51:27.529Z,33.13
2019-05-22T19:53:36.741Z,35.98
2019-05-22T19:55:45.678Z,38.23
2019-05-22T19:57:56.270Z,34.67
2019-05-22T20:00:05.071Z,38.48
2019-05-22T20:02:15.138Z,47.33
2019-05-22T20:04:23.670Z,44.77
2019-05-22T20:06:32.505Z,40.65
2019-05-22T20:08:40.678Z,35.75
2019-05-22T20:10:48.896Z,34.65
2019-05-22T20:12:57.826Z,34.40
2019-05-22T20:15:09.900Z,50.55
2019-05-22T20:17:18.342Z,52.05
2019-05-22T20:19:27.127Z,50.03
2019-05-22T20:21:35.598Z,36.88
2019-05-22T20:23:44.500Z,35.03
2019-05-22T20:25:52.597Z,30.95
2019-05-22T20:28:03.735Z,41.00
2019-05-22T20:30:14.485Z,39.73
2019-05-22T20:32:23.020Z,38.58
2019-05-22T20:34:31.105Z,27.25
2019-05-22T20:36:40.760Z,24.77
2019-05-22T20:38:50.050Z,26.15
2019-05-22T20:40:59.158Z,22.75
2019-05-22T20:43:08.953Z,24.43
2019-05-22T20:45:19.275Z,22.40
2019-05-22T20:47:28.353Z,20.10
2019-05-22T20:49:36.422Z,20.50
2019-05-22T20:51:44.468Z,20.35
2019-05-22T20:53:54.838Z,19.52
2019-05-22T20:56:04.471Z,22.52
2019-05-22T20:58:14.384Z,26.30
2019-05-22T21:00:23.525Z,24.70
2019-05-22T21:02:34.046Z,22.15
2019-05-22T21:04:43.949Z,19.40
2019-05-22T21:07:00.286Z,21.15
2019-05-22T21:09:09.186Z,21.00
2019-05-22T21:11:21.435Z,21.60
2019-05-22T21:13:31.407Z,19.57
2019-05-22T21:15:39.840Z,18.07
2019-05-22T21:17:49.147Z,18.23
2019-05-22T21:19:58.489Z,21.00
2019-05-22T21:22:08.354Z,20.05
2019-05-22T21:24:17.836Z,20.97
2019-05-22T21:26:26.741Z,21.65
2019-05-22T21:28:34.777Z,20.00
2019-05-22T21:30:44.413Z,21.17
2019-05-22T21:32:52.565Z,20.48
2019-05-22T21:35:00.832Z,18.57
2019-05-22T21:37:10.062Z,19.17
2019-05-22T21:39:19.282Z,17.25
2019-05-22T21:41:28.131Z,17.20
2019-05-22T21:43:36.273Z,15.70
2019-05-22T21:45:45.208Z,14.68
2019-05-22T21:47:53.428Z,16.45
2019-05-22T21:50:02.249Z,15.23
2019-05-22T21:52:11.683Z,15.55
2019-05-22T21:54:19.709Z,16.82
2019-05-22T21:56:27.876Z,25.85
2019-05-22T21:58:36.358Z,26.20
2019-05-22T22:00:50.689Z,19.02
2019-05-22T22:03:00.195Z,19.20
2019-05-22T22:05:08.930Z,18.62
2019-05-22T22:07:18.229Z,27.27
2019-05-22T22:09:27.741Z,27.13
2019-05-22T22:11:36.584Z,22.60
2019-05-22T22:13:45.451Z,21.82
2019-05-22T22:15:53.889Z,20.70
2019-05-22T22:18:02.306Z,19.98
2019-05-22T22:20:12.105Z,18.82
2019-05-22T22:22:24.691Z,18.85
2019-05-22T22:24:33.548Z,19.30
2019-05-22T22:26:41.927Z,19.42
2019-05-22T22:28:51.002Z,30.52
2019-05-22T22:31:04.482Z,23.12
2019-05-22T22:33:14.775Z,24.25
2019-05-22T22:35:23.569Z,19.77
2019-05-22T22:37:32.303Z,19.75
2019-05-22T22:39:43.968Z,19.00
2019-05-22T22:41:53.412Z,20.08
2019-05-22T22:44:03.583Z,28.25
2019-05-22T22:46:40.962Z,29.50
2019-05-22T22:48:51.836Z,36.45
2019-05-22T22:51:01.346Z,27.82
2019-05-22T22:53:10.527Z,26.52
2019-05-22T22:55:20.229Z,26.80
2019-05-22T22:57:28.415Z,28.15
2019-05-22T22:59:36.873Z,25.15
2019-05-22T23:01:50.005Z,26.10
2019-05-22T23:04:01.143Z,25.50
2019-05-22T23:06:11.944Z,31.62
2019-05-22T23:08:27.694Z,30.35
2019-05-22T23:10:36.711Z,26.30
2019-05-22T23:12:44.723Z,25.75
2019-05-22T23:14:57.397Z,21.75
2019-05-22T23:17:06.048Z,19.32
2019-05-22T23:19:18.830Z,18.25
2019-05-22T23:21:26.931Z,18.20
2019-05-22T23:23:33.273Z,19.00
2019-05-22T23:25:43.305Z,18.23
2019-05-22T23:27:51.267Z,19.80
2019-05-22T23:29:59.920Z,19.85
2019-05-22T23:32:10.298Z,19.57
2019-05-22T23:34:18.692Z,20.88
2019-05-22T23:36:27.414Z,22.40
2019-05-22T23:38:35.307Z,24.12
2019-05-22T23:40:45.581Z,22.98
2019-05-22T23:42:58.165Z,19.65
2019-05-22T23:45:13.914Z,26.12
2019-05-22T23:47:24.912Z,15.55
2019-05-22T23:49:35.007Z,18.62
2019-05-22T23:51:43.643Z,13.93
2019-05-22T23:53:54.040Z,10.85
2019-05-22T23:56:04.066Z,12.75
2019-05-22T23:58:14.273Z,12.10
